Latest Weather Observations for Deniliquin

IDN60801

Issued at 10:35 pm EST Friday 18 April 2014 (issued every 30 minutes, with the page automatically refreshed every 10 minutes)

About weather observations | Map of weather stations | Latest weather observations for NSW | Other Formats
Station Details ID: 074258 Name: DENILIQUIN AIRPORT AWS Lat: -35.56 Lon: 144.95 Height: 94.0 m
Data from the previous 72 hours. | See also: Recent months at Deniliquin
Date/Time
EST
Temp
°C
App
Temp
°C
Dew
Point
Rel
Hum
%
Delta-T
°C
Wind Press
QNH
hPa
Press
MSL
hPa
Rain
since 9 am
mm
Dir
 
Spd
km/h
Gust
km/h
Spd
kts
Gust
kts
18/10:30pm 9.7 6.3 3.9 67 2.5 SSW 11 13 6 7 1020.1 - 0.0
18/10:00pm 10.8 6.6 3.8 62 3.1 S 15 19 8 10 1020.0 - 0.0
18/09:30pm 11.3 6.8 4.1 61 3.2 SSW 17 20 9 11 1020.0 - 0.0
18/09:00pm 11.0 6.8 4.0 62 3.1 SW 15 17 8 9 1019.7 1019.6 0.0
18/08:30pm 11.6 7.3 3.4 57 3.6 SW 15 17 8 9 1019.3 - 0.0
18/08:00pm 13.0 7.7 2.8 50 4.5 SW 20 24 11 13 1019.0 - 0.0
18/07:30pm 13.9 8.1 2.5 46 5.1 SW 22 24 12 13 1018.7 - 0.0
18/07:00pm 14.7 9.2 4.1 49 4.9 SW 22 28 12 15 1018.3 - 0.0
18/06:30pm 15.6 10.3 6.6 55 4.4 SW 24 30 13 16 1017.9 - 0.0
18/06:00pm 16.8 11.3 7.7 55 4.6 SW 26 32 14 17 1017.3 1017.2 0.0
18/05:30pm 17.7 12.8 8.6 55 4.7 SSW 24 32 13 17 1016.9 - 0.0
18/05:00pm 18.3 12.5 9.6 57 4.6 SW 30 41 16 22 1016.8 - 0.0
18/04:30pm 18.9 13.2 11.2 61 4.2 SW 32 41 17 22 1016.3 - 0.0
18/04:00pm 18.8 11.9 11.6 63 4.0 SW 39 48 21 26 1016.1 - 0.0
18/03:55pm 19.0 11.6 11.1 60 4.3 SW 41 54 22 29 1015.9 - 0.0
18/03:30pm 21.2 14.4 9.4 47 6.3 WSW 35 46 19 25 1015.5 - 0.0
18/03:00pm 21.4 14.5 8.7 44 6.7 WSW 35 43 19 23 1015.3 1015.2 0.0
18/02:30pm 21.9 16.5 9.4 45 6.7 W 28 41 15 22 1015.3 - 0.0
18/02:00pm 21.6 16.0 8.8 44 6.8 WSW 28 35 15 19 1015.4 - 0.0
18/01:30pm 21.4 16.3 9.3 46 6.5 W 26 33 14 18 1015.5 - 0.0
18/01:00pm 21.4 15.7 9.9 48 6.2 W 30 39 16 21 1015.7 - 0.0
18/12:30pm 21.8 16.0 9.3 45 6.7 W 30 39 16 21 1016.2 - 0.0
18/12:00pm 22.0 16.5 9.2 44 6.9 W 28 39 15 21 1016.5 1016.4 0.0
18/11:30am 21.6 16.1 9.2 45 6.6 W 28 39 15 21 1016.8 - 0.0
18/11:00am 21.5 16.1 9.4 46 6.5 W 28 37 15 20 1016.9 - 0.0
18/10:30am 20.8 16.3 8.4 45 6.5 WNW 22 30 12 16 1017.1 - 0.0
18/10:00am 20.4 17.7 10.2 52 5.5 WNW 15 19 8 10 1017.4 - 0.0
18/09:30am 18.1 16.0 9.7 58 4.5 NW 11 15 6 8 1017.6 - 0.0
18/09:00am 15.8 14.2 10.1 69 3.0 NNW 9 11 5 6 1017.8 1017.7 0.0
18/08:30am 14.8 12.5 9.0 68 3.0 NW 11 15 6 8 1017.7 - 0.0
18/08:00am 13.5 11.6 9.0 74 2.3 NW 9 13 5 7 1017.6 - 0.0
18/07:30am 11.6 10.2 8.8 83 1.4 NNW 6 6 3 3 1017.5 - 0.0
18/07:00am 10.3 9.4 7.9 85 1.2 NNW 2 6 1 3 1017.5 - 0.0
18/06:30am 10.6 8.8 7.8 83 1.4 NW 7 9 4 5 1017.3 - 0.0
18/06:00am 11.5 9.8 8.4 81 1.5 NNW 7 9 4 5 1017.1 1017.0 0.0
18/05:30am 11.0 8.8 7.7 80 1.6 NNW 9 9 5 5 1017.1 - 0.0
18/05:00am 11.1 8.9 7.8 80 1.6 NNW 9 11 5 6 1017.1 - 0.0
18/04:30am 12.2 10.5 8.3 77 1.9 N 7 9 4 5 1017.1 - 0.0
18/04:00am 12.7 10.5 8.0 73 2.3 N 9 13 5 7 1017.0 - 0.0
18/03:30am 13.6 10.8 8.4 71 2.6 N 13 15 7 8 1016.9 - 0.0
18/03:00am 13.3 10.5 8.4 72 2.4 N 13 15 7 8 1017.4 1017.3 0.0
18/02:30am 13.1 10.3 8.6 74 2.3 N 13 15 7 8 1017.8 - 0.0
18/02:00am 13.1 10.3 8.6 74 2.3 NNW 13 15 7 8 1018.1 - 0.0
18/01:30am 13.5 10.7 8.6 72 2.5 N 13 15 7 8 1018.3 - 0.0
18/01:00am 13.4 10.5 8.3 71 2.6 NNW 13 15 7 8 1018.5 - 0.0
18/12:30am 14.5 11.7 8.7 68 2.9 N 13 17 7 9 1018.6 - 0.0
18/12:00am 14.1 11.8 9.1 72 2.5 N 11 13 6 7 1018.8 1018.7 0.0
 
Date/Time
EST
Temp
°C
App
Temp
°C
Dew
Point
Rel
Hum
%
Delta-T
°C
Wind Press
QNH
hPa
Press
MSL
hPa
Rain
since 9 am
mm
Dir
 
Spd
km/h
Gust
km/h
Spd
kts
Gust
kts
17/11:30pm 13.4 11.7 9.8 79 1.9 NNE 9 11 5 6 1019.1 - 0.0
17/11:00pm 13.1 11.7 9.5 79 1.8 N 7 9 4 5 1019.3 - 0.0
17/10:30pm 13.9 12.3 10.1 78 2.0 N 9 11 5 6 1019.4 - 0.0
17/10:00pm 13.8 12.1 10.0 78 2.0 N 9 11 5 6 1019.6 - 0.0
17/09:30pm 14.5 14.3 10.5 77 2.1 NE 2 6 1 3 1019.6 - 0.0
17/09:00pm 14.6 14.3 10.2 75 2.3 NE 2 6 1 3 1019.6 1019.5 0.0
17/08:30pm 15.3 14.1 10.3 72 2.6 NE 7 7 4 4 1019.6 - 0.0
17/08:00pm 15.6 14.5 10.6 72 2.7 NE 7 9 4 5 1019.7 - 0.0
17/07:30pm 16.7 16.0 10.1 65 3.5 NE 4 6 2 3 1019.4 - 0.0
17/07:00pm 17.9 17.9 9.8 59 4.3 CALM 0 0 0 0 1019.3 - 0.0
17/06:30pm 18.5 18.4 9.3 55 4.9 CALM 0 0 0 0 1019.1 - 0.0
17/06:00pm 20.6 19.1 8.3 45 6.4 S 6 6 3 3 1018.9 1018.8 0.0
17/05:30pm 21.8 20.1 8.3 42 7.1 SW 7 9 4 5 1018.9 - 0.0
17/05:00pm 22.7 21.1 8.0 39 7.8 SW 6 9 3 5 1018.8 - 0.0
17/04:30pm 23.0 20.5 6.7 35 8.4 SW 9 13 5 7 1018.8 - 0.0
17/04:00pm 23.4 21.5 7.5 36 8.3 WSW 7 13 4 7 1018.9 - 0.0
17/03:30pm 23.0 20.1 6.7 35 8.4 SSW 11 15 6 8 1019.1 - 0.0
17/03:00pm 23.1 20.7 6.8 35 8.4 NNW 9 17 5 9 1019.3 1019.2 0.0
17/02:30pm 23.1 21.1 7.2 36 8.3 W 7 15 4 8 1019.6 - 0.0
17/02:00pm 23.2 21.2 6.9 35 8.5 WNW 7 11 4 6 1019.7 - 0.0
17/01:30pm 22.8 20.4 7.0 36 8.2 WNW 9 13 5 7 1020.0 - 0.0
17/01:00pm 22.7 20.5 7.7 38 7.9 WNW 9 17 5 9 1020.3 - 0.0
17/12:30pm 21.9 19.7 7.7 40 7.4 NNW 9 17 5 9 1020.7 - 0.0
17/12:00pm 21.3 19.1 7.9 42 7.0 NNW 9 13 5 7 1021.2 1021.1 0.0
17/11:30am 20.9 18.6 7.5 42 6.9 W 9 15 5 8 1021.5 - 0.0
17/11:00am 20.8 20.1 8.4 45 6.5 NE 2 7 1 4 1021.5 - 0.0
17/10:30am 19.7 19.3 9.6 52 5.4 ENE 2 9 1 5 1021.7 - 0.0
17/10:00am 18.8 18.2 10.4 58 4.5 ESE 4 6 2 3 1021.8 - 0.0
17/09:30am 17.6 17.6 9.8 60 4.1 CALM 0 0 0 0 1021.8 - 0.0
17/09:00am 16.4 16.4 9.8 65 3.5 CALM 0 0 0 0 1021.8 1021.7 0.0
17/08:30am 14.5 13.4 10.5 77 2.1 E 7 9 4 5 1021.6 - 0.0
17/08:00am 12.4 11.3 10.6 89 0.9 E 7 9 4 5 1021.4 - 0.0
17/07:30am 10.4 9.1 9.8 96 0.3 E 7 9 4 5 1021.1 - 0.0
17/07:00am 9.2 7.7 8.3 94 0.4 SSW 6 7 3 4 1020.7 - 0.0
17/06:30am 9.4 9.1 8.5 94 0.4 CALM 0 0 0 0 1020.4 - 0.0
17/06:00am 9.6 9.3 8.7 94 0.4 CALM 0 0 0 0 1020.2 1020.1 0.0
17/05:30am 9.4 8.3 8.3 93 0.5 SSW 4 6 2 3 1020.1 - 0.0
17/05:00am 10.0 9.8 9.1 94 0.4 CALM 0 0 0 0 1019.8 - 0.0
17/04:30am 10.2 10.0 9.1 93 0.5 CALM 0 0 0 0 1019.7 - 0.0
17/04:00am 10.3 10.1 9.2 93 0.5 CALM 0 0 0 0 1019.5 - 0.0
17/03:30am 10.4 10.3 9.3 93 0.6 CALM 0 0 0 0 1019.4 - 0.0
17/03:00am 10.5 9.2 9.3 92 0.6 SSW 6 6 3 3 1019.2 1019.1 0.0
17/02:30am 10.2 8.6 8.8 91 0.7 SSW 7 9 4 5 1019.3 - 0.0
17/02:00am 10.4 10.1 8.7 89 0.8 CALM 0 0 0 0 1019.2 - 0.0
17/01:30am 10.6 10.3 8.5 87 1.0 CALM 0 0 0 0 1019.1 - 0.0
17/01:00am 10.7 9.6 8.6 87 1.0 ENE 4 6 2 3 1019.0 - 0.0
17/12:30am 10.8 9.3 9.1 89 0.8 NE 7 9 4 5 1019.1 - 0.0
17/12:00am 11.1 10.2 9.2 88 1.0 SSW 4 9 2 5 1019.3 1019.2 0.0
 
Date/Time
EST
Temp
°C
App
Temp
°C
Dew
Point
Rel
Hum
%
Delta-T
°C
Wind Press
QNH
hPa
Press
MSL
hPa
Rain
since 9 am
mm
Dir
 
Spd
km/h
Gust
km/h
Spd
kts
Gust
kts
16/11:30pm 11.9 11.8 9.5 85 1.2 CALM 0 0 0 0 1019.7 - 0.0
16/11:00pm 13.1 13.2 10.1 82 1.6 CALM 0 0 0 0 1020.0 - 0.0
16/10:30pm 12.4 12.3 9.4 82 1.5 CALM 0 0 0 0 1020.3 - 0.0
16/10:00pm 12.8 12.7 9.4 80 1.7 CALM 0 0 0 0 1020.4 - 0.0
16/09:30pm 12.8 12.7 9.4 80 1.7 CALM 0 0 0 0 1020.4 - 0.0
16/09:00pm 13.5 13.5 9.7 78 2.0 CALM 0 0 0 0 1020.3 1020.2 0.0
16/08:30pm 14.2 14.1 9.6 74 2.4 CALM 0 0 0 0 1020.2 - 0.0
16/08:00pm 14.6 13.2 9.4 71 2.7 SSW 7 9 4 5 1020.1 - 0.0
16/07:30pm 15.5 13.3 9.2 66 3.3 WSW 11 13 6 7 1019.9 - 0.0
16/07:00pm 15.8 13.9 9.2 65 3.4 S 9 9 5 5 1019.7 - 0.0
16/06:30pm 16.3 14.5 9.5 64 3.6 SW 9 9 5 5 1019.3 - 0.0
16/06:00pm 17.8 15.4 8.6 55 4.8 SW 11 13 6 7 1019.0 1018.9 0.0
16/05:30pm 19.6 17.0 7.7 46 6.1 SW 11 13 6 7 1018.7 - 0.0
16/05:00pm 20.9 17.6 7.9 43 6.8 SW 15 19 8 10 1018.8 - 0.0
16/04:30pm 21.3 17.9 7.5 41 7.2 SW 15 20 8 11 1018.6 - 0.0
16/04:00pm 21.4 17.4 6.5 38 7.6 WSW 17 20 9 11 1018.5 - 0.0
16/03:30pm 22.0 18.9 7.4 39 7.6 WSW 13 32 7 17 1018.7 - 0.0
16/03:00pm 21.5 17.6 7.0 39 7.4 W 17 32 9 17 1018.8 1018.7 0.0
16/02:30pm 21.4 19.0 6.9 39 7.4 SW 9 19 5 10 1018.7 - 0.0
16/02:00pm 21.6 18.8 7.1 39 7.5 W 11 17 6 9 1018.9 - 0.0
16/01:30pm 21.6 18.5 7.1 39 7.5 WNW 13 20 7 11 1019.1 - 0.0
16/01:00pm 21.1 17.8 6.6 39 7.4 WNW 13 19 7 10 1019.5 - 0.0
16/12:30pm 21.0 18.6 6.9 40 7.2 NW 9 19 5 10 1019.8 - 0.0
16/12:00pm 20.4 17.8 7.7 44 6.6 NW 11 19 6 10 1020.4 1020.3 0.0
16/11:30am 19.9 17.4 8.3 47 6.1 NW 11 17 6 9 1020.7 - 0.0
16/11:00am 19.6 17.3 8.9 50 5.6 NNW 11 17 6 9 1020.9 - 0.0
16/10:30am 18.3 16.8 10.7 61 4.1 NNW 9 13 5 7 1021.2 - 0.0
16/10:00am 17.0 15.1 10.4 65 3.5 N 11 15 6 8 1021.4 - 0.0
16/09:30am 16.8 15.3 10.4 66 3.4 N 9 13 5 7 1021.4 - 0.0
16/09:00am 15.2 14.0 10.4 73 2.5 N 7 11 4 6 1021.5 1021.4 0.0
16/08:30am 13.1 13.7 11.8 92 0.7 CALM 0 0 0 0 1021.2 - 0.0
16/08:00am 10.7 10.9 10.5 99 0.1 CALM 0 7 0 4 1021.0 - 0.0
16/07:30am 9.0 8.7 8.7 98 0.1 CALM 0 0 0 0 1021.0 - 0.0
16/07:00am 7.8 6.4 7.4 97 0.2 S 4 6 2 3 1020.8 - 0.0
16/06:30am 7.8 5.9 7.4 97 0.2 S 7 7 4 4 1020.7 - 0.0
16/06:00am 7.8 6.0 7.2 96 0.3 S 6 7 3 4 1020.7 1020.6 0.0
16/05:30am 8.4 6.8 7.8 96 0.3 SSE 6 7 3 4 1020.4 - 0.0
16/05:00am 9.4 8.0 8.8 96 0.3 SSE 6 7 3 4 1020.0 - 0.0
16/04:30am 9.3 7.8 8.4 94 0.4 SSE 6 7 3 4 1019.6 - 0.0
16/04:00am 9.2 7.4 8.1 93 0.5 S 7 9 4 5 1019.5 - 0.0
16/03:30am 9.8 8.2 8.6 92 0.6 S 7 9 4 5 1019.4 - 0.0
16/03:00am 9.4 7.6 8.0 91 0.7 S 7 7 4 4 1019.5 1019.4 0.0
16/02:30am 9.9 8.2 8.3 90 0.8 S 7 9 4 5 1019.6 - 0.0
16/02:00am 10.1 8.4 8.2 88 0.9 S 7 9 4 5 1019.9 - 0.0
16/01:30am 10.4 8.7 8.5 88 0.9 S 7 9 4 5 1020.1 - 0.0
16/01:00am 10.1 7.9 8.0 87 1.0 S 9 11 5 6 1020.3 - 0.0
16/12:30am 11.0 9.4 8.6 85 1.2 S 7 9 4 5 1020.3 - 0.0
16/12:00am 11.3 11.1 8.9 85 1.2 CALM 0 0 0 0 1020.5 1020.4 0.0
 
Date/Time
EST
Temp
°C
App
Temp
°C
Dew
Point
Rel
Hum
%
Delta-T
°C
Wind Press
QNH
hPa
Press
MSL
hPa
Rain
since 9 am
mm
Dir
 
Spd
km/h
Gust
km/h
Spd
kts
Gust
kts
15/11:30pm 11.5 11.3 9.1 85 1.2 CALM 0 0 0 0 1020.7 - 0.0
15/11:00pm 11.8 10.8 9.0 83 1.4 SSE 4 6 2 3 1021.0 - 0.0

Other Formats:

Comma delimited format used in spreadsheet applications
http://www.bom.gov.au/fwo/IDN60801/IDN60801.95869.axf

JavaScript Object Notation format (JSON) in row-major order
http://www.bom.gov.au/fwo/IDN60801/IDN60801.95869.json